createdAt,value
2023-04-15T00:00:16.853Z,8.70
2023-04-15T00:01:16.858Z,13.30
2023-04-15T00:02:16.887Z,12.10
2023-04-15T00:03:17.075Z,12.70
2023-04-15T00:04:16.843Z,14.00
2023-04-15T00:05:16.800Z,14.00
2023-04-15T00:06:16.771Z,13.00
2023-04-15T00:07:16.763Z,11.80
2023-04-15T00:08:16.770Z,15.20
2023-04-15T00:09:16.739Z,10.20
2023-04-15T00:10:16.731Z,14.00
2023-04-15T00:11:16.708Z,11.50
2023-04-15T00:12:16.692Z,12.10
2023-04-15T00:13:16.714Z,13.10
2023-04-15T00:14:16.673Z,10.80
2023-04-15T00:15:16.663Z,11.20
2023-04-15T00:16:16.650Z,13.30
2023-04-15T00:17:16.632Z,9.90
2023-04-15T00:18:16.631Z,9.30
2023-04-15T00:19:16.624Z,11.20
2023-04-15T00:20:16.592Z,14.40
2023-04-15T00:21:16.589Z,15.90
2023-04-15T00:22:16.573Z,15.80
2023-04-15T00:23:16.576Z,13.70
2023-04-15T00:24:16.531Z,11.70
2023-04-15T00:25:16.524Z,12.00
2023-04-15T00:26:16.514Z,12.90
2023-04-15T00:27:16.513Z,10.50
2023-04-15T00:28:16.485Z,11.00
2023-04-15T00:29:16.486Z,11.10
2023-04-15T00:30:16.453Z,11.20
2023-04-15T00:31:16.547Z,14.60
2023-04-15T00:32:16.458Z,13.90
2023-04-15T00:33:16.470Z,12.70
2023-04-15T00:34:16.404Z,13.10
2023-04-15T00:35:16.402Z,10.90
2023-04-15T00:36:16.425Z,14.60
2023-04-15T00:37:16.386Z,12.60
2023-04-15T00:38:16.344Z,9.00
2023-04-15T00:39:16.357Z,11.70
2023-04-15T00:40:16.326Z,15.60
2023-04-15T00:41:16.319Z,12.70
2023-04-15T00:42:16.339Z,10.10
2023-04-15T00:43:16.300Z,14.20
2023-04-15T00:44:16.294Z,14.40
2023-04-15T00:45:16.276Z,11.80
2023-04-15T00:46:16.288Z,11.40
2023-04-15T00:47:16.280Z,10.80
2023-04-15T00:48:16.219Z,11.90
2023-04-15T00:49:16.216Z,10.60
2023-04-15T00:50:16.204Z,12.50
2023-04-15T00:51:16.193Z,10.30
2023-04-15T00:52:16.184Z,13.80
2023-04-15T00:53:16.164Z,11.00
2023-04-15T00:54:16.145Z,9.00
2023-04-15T00:55:16.138Z,14.70
2023-04-15T00:56:16.120Z,11.60
2023-04-15T00:57:16.160Z,13.30
2023-04-15T00:58:16.086Z,16.20
2023-04-15T00:59:16.080Z,12.90
2023-04-15T01:00:16.081Z,14.80
2023-04-15T01:01:16.121Z,13.70
2023-04-15T01:02:16.212Z,15.10
2023-04-15T01:03:16.269Z,13.80
2023-04-15T01:04:16.068Z,11.40
2023-04-15T01:05:16.008Z,15.60
2023-04-15T01:06:15.987Z,15.10
2023-04-15T01:07:15.979Z,14.50
2023-04-15T01:08:15.975Z,13.90
2023-04-15T01:09:15.950Z,12.80
2023-04-15T01:10:15.932Z,15.50
2023-04-15T01:11:15.918Z,13.60
2023-04-15T01:12:15.907Z,12.10
2023-04-15T01:13:15.923Z,14.70
2023-04-15T01:14:15.878Z,12.70
2023-04-15T01:15:15.867Z,13.10
2023-04-15T01:16:15.853Z,11.90
2023-04-15T01:17:15.834Z,13.20
2023-04-15T01:18:15.846Z,12.40
2023-04-15T01:19:15.825Z,14.70
2023-04-15T01:20:15.794Z,18.00
2023-04-15T01:21:15.799Z,12.70
2023-04-15T01:22:15.791Z,13.60
2023-04-15T01:23:15.805Z,15.80
2023-04-15T01:24:15.753Z,15.10
2023-04-15T01:25:15.745Z,13.50
2023-04-15T01:26:15.735Z,14.40
2023-04-15T01:27:15.742Z,13.20
2023-04-15T01:28:15.699Z,14.60
2023-04-15T01:29:15.696Z,14.00
2023-04-15T01:30:15.700Z,12.40
2023-04-15T01:31:15.696Z,14.00
2023-04-15T01:32:15.653Z,11.80
2023-04-15T01:33:15.636Z,15.00
2023-04-15T01:34:15.634Z,13.30
2023-04-15T01:35:15.624Z,13.80
2023-04-15T01:36:15.618Z,14.20
2023-04-15T01:37:15.590Z,13.00
2023-04-15T01:38:15.630Z,13.00
2023-04-15T01:39:15.549Z,17.90
2023-04-15T01:40:15.563Z,14.10
2023-04-15T01:41:15.544Z,14.40
2023-04-15T01:42:15.529Z,12.30
2023-04-15T01:43:15.525Z,13.90
2023-04-15T01:44:15.489Z,16.00
2023-04-15T01:45:15.471Z,17.70
2023-04-15T01:46:15.495Z,18.80
2023-04-15T01:47:15.489Z,12.50
2023-04-15T01:48:15.431Z,14.90
2023-04-15T01:49:15.425Z,17.60
2023-04-15T01:50:15.404Z,14.80
2023-04-15T01:51:15.403Z,14.50
2023-04-15T01:52:15.392Z,11.90
2023-04-15T01:53:15.405Z,13.70
2023-04-15T01:54:15.354Z,11.50
2023-04-15T01:55:15.349Z,12.60
2023-04-15T01:56:16.838Z,13.80
2023-04-15T01:57:15.337Z,11.80
2023-04-15T01:58:15.322Z,13.80
2023-04-15T01:59:15.328Z,13.20
2023-04-15T02:00:15.275Z,12.90
2023-04-15T02:01:15.307Z,11.30
2023-04-15T02:02:15.296Z,12.40
2023-04-15T02:03:15.335Z,13.60
2023-04-15T02:04:15.226Z,12.00
2023-04-15T02:05:15.226Z,15.70
2023-04-15T02:06:15.202Z,14.40
2023-04-15T02:07:15.203Z,13.40
2023-04-15T02:08:15.219Z,14.50
2023-04-15T02:09:15.171Z,15.60
2023-04-15T02:10:15.158Z,12.40
2023-04-15T02:11:15.137Z,14.50
2023-04-15T02:12:15.136Z,18.30
2023-04-15T02:13:15.109Z,16.30
2023-04-15T02:14:15.107Z,14.40
2023-04-15T02:15:15.088Z,15.90
2023-04-15T02:16:15.085Z,12.50
2023-04-15T02:17:15.091Z,11.50
2023-04-15T02:18:15.036Z,16.60
2023-04-15T02:19:15.040Z,17.60
2023-04-15T02:20:15.016Z,14.20
2023-04-15T02:21:15.051Z,17.10
2023-04-15T02:22:15.009Z,12.40
2023-04-15T02:23:14.989Z,15.70
2023-04-15T02:24:14.982Z,13.00
2023-04-15T02:25:14.960Z,12.30
2023-04-15T02:26:14.938Z,17.30
2023-04-15T02:27:14.955Z,17.90
2023-04-15T02:28:14.917Z,12.40
2023-04-15T02:29:14.917Z,13.70
2023-04-15T02:30:14.892Z,16.80
2023-04-15T02:31:14.929Z,18.70
2023-04-15T02:32:14.888Z,17.90
2023-04-15T02:33:14.860Z,15.50
2023-04-15T02:34:14.845Z,20.90
2023-04-15T02:35:14.835Z,16.30
2023-04-15T02:36:14.811Z,21.50
2023-04-15T02:37:14.820Z,16.30
2023-04-15T02:38:14.796Z,15.60
2023-04-15T02:39:14.774Z,18.20
2023-04-15T02:40:14.759Z,16.90
2023-04-15T02:41:14.761Z,17.20
2023-04-15T02:42:14.764Z,18.30
2023-04-15T02:43:14.720Z,14.80
2023-04-15T02:44:14.700Z,16.00
2023-04-15T02:45:14.702Z,17.00
2023-04-15T02:46:14.998Z,15.30
2023-04-15T02:47:14.663Z,15.90
2023-04-15T02:48:14.673Z,13.90
2023-04-15T02:49:14.649Z,19.70
2023-04-15T02:50:14.624Z,16.50
2023-04-15T02:51:14.611Z,15.60
2023-04-15T02:52:14.590Z,15.20
2023-04-15T02:53:14.644Z,19.00
2023-04-15T02:54:14.572Z,20.10
2023-04-15T02:55:14.562Z,12.70
2023-04-15T02:56:14.538Z,15.00
2023-04-15T02:57:14.581Z,16.50
2023-04-15T02:58:14.514Z,17.10
2023-04-15T02:59:14.509Z,17.10
2023-04-15T03:00:14.498Z,16.90
2023-04-15T03:01:14.530Z,15.90
2023-04-15T03:02:14.532Z,15.70
2023-04-15T03:03:14.616Z,14.90
2023-04-15T03:04:14.625Z,12.80
2023-04-15T03:05:14.420Z,19.10
2023-04-15T03:06:14.411Z,14.60
2023-04-15T03:07:14.420Z,14.60
2023-04-15T03:08:14.388Z,17.10
2023-04-15T03:09:14.441Z,14.30
2023-04-15T03:10:14.355Z,15.70
2023-04-15T03:11:14.349Z,14.50
2023-04-15T03:12:14.334Z,12.40
2023-04-15T03:13:14.325Z,14.70
2023-04-15T03:14:14.309Z,14.80
2023-04-15T03:15:14.303Z,14.60
2023-04-15T03:16:14.389Z,17.50
2023-04-15T03:17:14.280Z,15.20
2023-04-15T03:18:14.247Z,14.60
2023-04-15T03:19:14.246Z,15.30
2023-04-15T03:20:14.250Z,15.60
2023-04-15T03:21:14.210Z,18.50
2023-04-15T03:22:14.210Z,16.10
2023-04-15T03:23:14.199Z,18.50
2023-04-15T03:24:14.175Z,14.10
2023-04-15T03:25:14.188Z,18.40
2023-04-15T03:26:14.140Z,16.30
2023-04-15T03:27:14.169Z,16.30
2023-04-15T03:28:14.124Z,19.80
2023-04-15T03:29:14.114Z,17.60
2023-04-15T03:30:14.091Z,17.10
2023-04-15T03:31:14.136Z,17.70
2023-04-15T03:32:14.065Z,16.00
2023-04-15T03:33:14.062Z,14.50
2023-04-15T03:34:14.042Z,15.20
2023-04-15T03:35:14.035Z,14.20
2023-04-15T03:36:14.040Z,13.60
2023-04-15T03:37:14.006Z,18.30
2023-04-15T03:38:13.989Z,15.50
2023-04-15T03:39:13.981Z,17.40
2023-04-15T03:40:13.973Z,17.20
2023-04-15T03:41:13.976Z,16.10
2023-04-15T03:42:13.934Z,17.60
2023-04-15T03:43:13.922Z,15.70
2023-04-15T03:44:13.913Z,17.70
2023-04-15T03:45:13.906Z,14.90
2023-04-15T03:46:13.966Z,16.30
2023-04-15T03:47:13.908Z,13.90
2023-04-15T03:48:17.865Z,19.60
2023-04-15T03:49:13.843Z,14.80
2023-04-15T03:50:13.836Z,22.50
2023-04-15T03:51:13.835Z,19.60
2023-04-15T03:52:13.812Z,18.50
2023-04-15T03:53:13.791Z,18.20
2023-04-15T03:54:13.783Z,19.90
2023-04-15T03:55:13.764Z,13.80
2023-04-15T03:56:13.789Z,18.10
2023-04-15T03:57:13.851Z,18.40
2023-04-15T03:58:13.724Z,18.00
2023-04-15T03:59:13.780Z,14.50
2023-04-15T04:00:13.703Z,15.60
2023-04-15T04:01:13.699Z,13.70
2023-04-15T04:02:13.785Z,15.60
2023-04-15T04:03:13.856Z,20.10
2023-04-15T04:04:13.726Z,18.30
2023-04-15T04:05:13.635Z,16.40
2023-04-15T04:06:13.649Z,18.40
2023-04-15T04:07:13.600Z,18.80
2023-04-15T04:08:13.592Z,22.20
2023-04-15T04:09:13.600Z,15.00
2023-04-15T04:10:13.572Z,16.40
2023-04-15T04:11:13.569Z,17.40
2023-04-15T04:12:13.541Z,16.00
2023-04-15T04:13:13.523Z,18.30
2023-04-15T04:14:13.518Z,19.40
2023-04-15T04:15:13.509Z,16.40
2023-04-15T04:16:13.558Z,18.50
2023-04-15T04:17:13.691Z,19.70
2023-04-15T04:18:13.476Z,15.50
2023-04-15T04:19:13.468Z,21.40
2023-04-15T04:20:13.454Z,18.00
2023-04-15T04:21:13.433Z,24.50
2023-04-15T04:22:13.413Z,19.80
2023-04-15T04:23:13.395Z,17.20
2023-04-15T04:24:13.388Z,17.40
2023-04-15T04:25:13.391Z,21.40
2023-04-15T04:26:13.393Z,17.20
2023-04-15T04:27:13.355Z,20.80
2023-04-15T04:28:13.340Z,19.40
2023-04-15T04:29:13.319Z,20.30
2023-04-15T04:30:13.310Z,18.80
2023-04-15T04:31:13.316Z,19.40
2023-04-15T04:32:13.352Z,23.80
2023-04-15T04:33:13.264Z,16.40
2023-04-15T04:34:13.258Z,17.60
2023-04-15T04:35:13.240Z,20.50
2023-04-15T04:36:13.231Z,22.60
2023-04-15T04:37:13.202Z,21.20
2023-04-15T04:38:13.191Z,19.10
2023-04-15T04:39:13.169Z,21.40
2023-04-15T04:40:13.170Z,21.50
2023-04-15T04:41:13.162Z,18.60
2023-04-15T04:42:13.145Z,18.50
2023-04-15T04:43:13.139Z,19.10
2023-04-15T04:44:13.124Z,21.30
2023-04-15T04:45:13.107Z,18.50
2023-04-15T04:46:13.175Z,21.80
2023-04-15T04:47:13.067Z,21.70
2023-04-15T04:48:13.075Z,20.40
2023-04-15T04:49:13.059Z,17.50
2023-04-15T04:50:13.046Z,20.20
2023-04-15T04:51:13.038Z,21.00
2023-04-15T04:52:13.074Z,20.50
2023-04-15T04:53:13.012Z,21.60
2023-04-15T04:54:13.001Z,17.20
2023-04-15T04:55:12.987Z,20.90
2023-04-15T04:56:12.989Z,18.40
2023-04-15T04:57:12.951Z,18.70
2023-04-15T04:58:12.930Z,21.60
2023-04-15T04:59:12.928Z,17.10
2023-04-15T05:00:12.902Z,21.90
2023-04-15T05:01:13.014Z,19.40
2023-04-15T05:02:12.952Z,21.20
2023-04-15T05:03:13.046Z,19.80
2023-04-15T05:04:12.984Z,21.60
2023-04-15T05:05:12.894Z,19.60
2023-04-15T05:06:13.045Z,23.20
2023-04-15T05:07:12.920Z,21.30
2023-04-15T05:08:12.898Z,21.10
2023-04-15T05:09:12.882Z,22.60
2023-04-15T05:10:12.787Z,19.60
2023-04-15T05:11:12.773Z,20.30
2023-04-15T05:12:12.757Z,22.30
2023-04-15T05:13:12.731Z,22.00
2023-04-15T05:14:12.724Z,22.60
2023-04-15T05:15:12.704Z,20.00
2023-04-15T05:16:12.816Z,18.30
2023-04-15T05:17:12.680Z,20.30
2023-04-15T05:18:12.677Z,21.40
2023-04-15T05:19:12.682Z,19.90
2023-04-15T05:20:12.655Z,19.90
2023-04-15T05:21:12.640Z,19.10
2023-04-15T05:22:12.626Z,21.70
2023-04-15T05:23:12.604Z,23.00
2023-04-15T05:24:12.603Z,22.90
2023-04-15T05:25:12.581Z,23.90
2023-04-15T05:26:12.583Z,22.30
2023-04-15T05:27:12.548Z,23.30
2023-04-15T05:28:12.550Z,24.80
2023-04-15T05:29:12.541Z,21.00
2023-04-15T05:30:13.560Z,23.20
2023-04-15T05:31:12.640Z,22.30
2023-04-15T05:32:12.486Z,27.50
2023-04-15T05:33:12.490Z,26.70
2023-04-15T05:34:12.467Z,28.10
2023-04-15T05:35:12.442Z,22.50
2023-04-15T05:36:12.457Z,26.50
2023-04-15T05:37:12.417Z,27.00
2023-04-15T05:38:12.409Z,25.40
2023-04-15T05:39:12.398Z,22.70
2023-04-15T05:40:12.389Z,27.40
2023-04-15T05:41:12.418Z,27.40
2023-04-15T05:42:12.460Z,24.80
2023-04-15T05:43:12.345Z,29.70
2023-04-15T05:44:12.329Z,26.40
2023-04-15T05:45:12.320Z,25.80
2023-04-15T05:46:12.362Z,27.90
2023-04-15T05:47:12.274Z,27.50
2023-04-15T05:48:12.292Z,25.00
2023-04-15T05:49:12.255Z,30.20
2023-04-15T05:50:12.282Z,24.40
2023-04-15T05:51:12.234Z,25.20
2023-04-15T05:52:12.227Z,26.90
2023-04-15T05:53:12.206Z,23.00
2023-04-15T05:54:12.197Z,21.30
2023-04-15T05:55:12.215Z,22.70
2023-04-15T05:56:12.182Z,22.30
2023-04-15T05:57:12.157Z,20.30
2023-04-15T05:58:12.154Z,21.20
2023-04-15T05:59:12.280Z,24.00
2023-04-15T06:00:12.136Z,24.70
2023-04-15T06:01:12.094Z,23.40
2023-04-15T06:02:12.184Z,26.90
2023-04-15T06:03:12.159Z,22.90
2023-04-15T06:04:12.197Z,24.20
2023-04-15T06:05:12.067Z,24.80
2023-04-15T06:06:12.039Z,24.10
2023-04-15T06:07:12.021Z,30.20
2023-04-15T06:08:12.018Z,24.20
2023-04-15T06:09:12.006Z,31.00
2023-04-15T06:10:12.012Z,25.40
2023-04-15T06:11:11.969Z,26.70
2023-04-15T06:12:11.990Z,24.80
2023-04-15T06:13:11.960Z,23.70
2023-04-15T06:14:11.930Z,25.40
2023-04-15T06:15:11.987Z,27.40
2023-04-15T06:16:11.964Z,24.40
2023-04-15T06:17:11.886Z,26.10
2023-04-15T06:18:11.879Z,27.60
2023-04-15T06:19:11.869Z,26.60
2023-04-15T06:20:11.873Z,22.70
2023-04-15T06:21:11.861Z,26.70
2023-04-15T06:22:11.830Z,26.20
2023-04-15T06:23:11.814Z,86.50
2023-04-15T06:24:11.803Z,87.60
2023-04-15T06:25:11.784Z,93.10
2023-04-15T06:26:11.796Z,91.10
2023-04-15T06:27:11.764Z,53.10
2023-04-15T06:28:11.748Z,24.90
2023-04-15T06:29:11.730Z,22.00
2023-04-15T06:30:11.726Z,31.30
2023-04-15T06:31:11.733Z,97.90
2023-04-15T06:32:11.706Z,28.20
2023-04-15T06:33:11.682Z,26.90
2023-04-15T06:34:11.673Z,24.70
2023-04-15T06:35:11.835Z,22.60
2023-04-15T06:36:11.648Z,22.50
2023-04-15T06:37:11.618Z,21.80
2023-04-15T06:38:11.618Z,21.70
2023-04-15T06:39:11.604Z,21.50
2023-04-15T06:40:11.611Z,21.50
2023-04-15T06:41:11.568Z,20.00
2023-04-15T06:42:11.570Z,24.50
2023-04-15T06:43:11.540Z,22.50
2023-04-15T06:44:11.528Z,20.40
2023-04-15T06:45:11.537Z,19.30
2023-04-15T06:46:11.572Z,18.90
2023-04-15T06:47:11.488Z,18.10
2023-04-15T06:48:11.478Z,19.50
2023-04-15T06:49:11.470Z,17.30
2023-04-15T06:50:11.479Z,15.70
2023-04-15T06:51:11.443Z,18.00
2023-04-15T06:52:11.450Z,18.50
2023-04-15T06:53:11.410Z,17.70
2023-04-15T06:54:11.402Z,17.70
2023-04-15T06:55:11.424Z,17.00
2023-04-15T06:56:11.384Z,19.10
2023-04-15T06:57:11.347Z,16.60
2023-04-15T06:58:11.350Z,15.20
2023-04-15T06:59:11.335Z,16.80
2023-04-15T07:00:11.339Z,17.40
2023-04-15T07:01:11.326Z,38.60
2023-04-15T07:02:11.385Z,72.70
2023-04-15T07:03:11.345Z,28.00
2023-04-15T07:04:11.290Z,17.30
2023-04-15T07:05:11.270Z,16.20
2023-04-15T07:06:11.253Z,15.90
2023-04-15T07:07:11.216Z,13.60
2023-04-15T07:08:11.221Z,13.70
2023-04-15T07:09:11.198Z,16.60
2023-04-15T07:10:11.221Z,17.80
2023-04-15T07:11:11.170Z,16.20
2023-04-15T07:12:11.164Z,13.60
2023-04-15T07:13:11.140Z,14.80
2023-04-15T07:14:11.135Z,13.90
2023-04-15T07:15:11.144Z,16.50
2023-04-15T07:16:11.142Z,15.20
2023-04-15T07:17:11.203Z,14.70
2023-04-15T07:18:11.089Z,16.00
2023-04-15T07:19:11.092Z,13.30
2023-04-15T07:20:11.087Z,14.70
2023-04-15T07:21:11.045Z,15.80
2023-04-15T07:22:11.025Z,109.10
2023-04-15T07:23:11.012Z,59.60
2023-04-15T07:24:11.001Z,23.10
2023-04-15T07:25:10.980Z,17.20
2023-04-15T07:26:11.001Z,14.40
2023-04-15T07:27:10.963Z,15.20
2023-04-15T07:28:10.965Z,12.90
2023-04-15T07:29:10.930Z,13.80
2023-04-15T07:30:10.928Z,16.80
2023-04-15T07:31:11.088Z,14.60
2023-04-15T07:32:10.920Z,16.90
2023-04-15T07:33:10.879Z,14.40
2023-04-15T07:34:10.869Z,14.50
2023-04-15T07:35:10.894Z,14.70
2023-04-15T07:36:10.842Z,32.30
2023-04-15T07:37:10.809Z,119.30
2023-04-15T07:38:10.815Z,16.70
2023-04-15T07:39:10.796Z,13.20
2023-04-15T07:40:10.813Z,13.30
2023-04-15T07:41:10.780Z,13.80
2023-04-15T07:42:10.770Z,11.70
2023-04-15T07:43:10.759Z,15.20
2023-04-15T07:44:10.739Z,12.70
2023-04-15T07:45:10.736Z,14.80
2023-04-15T07:46:10.755Z,13.10
2023-04-15T07:47:10.702Z,12.60
2023-04-15T07:48:10.678Z,14.40
2023-04-15T07:49:10.666Z,12.50
2023-04-15T07:50:10.669Z,10.50
2023-04-15T07:51:10.652Z,10.60
2023-04-15T07:52:10.632Z,11.40
2023-04-15T07:53:10.612Z,11.20
2023-04-15T07:54:10.612Z,9.70
2023-04-15T07:55:10.616Z,10.10
2023-04-15T07:56:10.583Z,11.20
2023-04-15T07:57:10.549Z,11.30
2023-04-15T07:58:10.550Z,10.90
2023-04-15T07:59:10.534Z,10.50
2023-04-15T08:00:10.552Z,10.40
2023-04-15T08:01:10.545Z,8.40
2023-04-15T08:02:10.554Z,9.90
2023-04-15T08:03:10.602Z,11.90
2023-04-15T08:04:10.857Z,10.10
2023-04-15T08:05:10.509Z,8.50
2023-04-15T08:06:10.436Z,8.00
2023-04-15T08:07:10.448Z,9.10
2023-04-15T08:08:10.451Z,9.60
2023-04-15T08:09:10.501Z,9.30
2023-04-15T08:10:10.476Z,9.20
2023-04-15T08:11:10.373Z,8.80
2023-04-15T08:12:10.354Z,7.70
2023-04-15T08:13:10.379Z,7.30
2023-04-15T08:14:10.319Z,8.70
2023-04-15T08:15:10.348Z,7.80
2023-04-15T08:16:10.339Z,10.10
2023-04-15T08:17:10.294Z,93.50
2023-04-15T08:18:10.274Z,14.70
2023-04-15T08:19:10.272Z,8.50
2023-04-15T08:20:10.270Z,7.00
2023-04-15T08:21:10.243Z,8.20
2023-04-15T08:22:11.223Z,5.20
2023-04-15T08:23:11.213Z,5.10
2023-04-15T08:24:10.194Z,4.50
2023-04-15T08:25:10.201Z,6.70
2023-04-15T08:26:10.172Z,4.90
2023-04-15T08:27:10.169Z,4.80
2023-04-15T08:28:10.140Z,5.20
2023-04-15T08:29:10.131Z,10.20
2023-04-15T08:30:10.140Z,20.90
2023-04-15T08:31:10.176Z,10.90
2023-04-15T08:32:10.095Z,5.60
2023-04-15T08:33:10.098Z,6.00
2023-04-15T08:34:10.060Z,5.70
2023-04-15T08:35:10.071Z,5.60
2023-04-15T08:36:10.060Z,5.50
2023-04-15T08:37:11.469Z,6.30
2023-04-15T08:38:10.013Z,6.00
2023-04-15T08:39:09.996Z,6.20
2023-04-15T08:40:10.011Z,5.70
2023-04-15T08:41:09.977Z,6.50
2023-04-15T08:42:09.964Z,6.40
2023-04-15T08:43:09.949Z,6.20
2023-04-15T08:44:09.922Z,6.00
2023-04-15T08:45:09.946Z,6.10
2023-04-15T08:46:09.905Z,6.00
2023-04-15T08:47:09.916Z,6.60
2023-04-15T08:48:09.874Z,7.50
2023-04-15T08:49:09.866Z,7.60
2023-04-15T08:50:09.883Z,8.40
2023-04-15T08:51:09.873Z,6.50
2023-04-15T08:52:09.832Z,8.00
2023-04-15T08:53:09.821Z,6.70
2023-04-15T08:54:09.797Z,6.70
2023-04-15T08:55:09.806Z,6.80
2023-04-15T08:56:09.793Z,7.00
2023-04-15T08:57:09.767Z,7.90
2023-04-15T08:58:09.745Z,8.30
2023-04-15T08:59:09.767Z,8.90
2023-04-15T09:00:09.745Z,7.00
2023-04-15T09:01:09.781Z,6.50
2023-04-15T09:02:09.749Z,7.40
2023-04-15T09:03:09.773Z,7.00
2023-04-15T09:04:09.698Z,7.60
2023-04-15T09:05:09.678Z,7.70
2023-04-15T09:06:09.640Z,8.10
2023-04-15T09:07:09.632Z,7.20
2023-04-15T09:08:09.646Z,6.40
2023-04-15T09:09:09.603Z,8.50
2023-04-15T09:10:09.602Z,9.50
2023-04-15T09:11:09.595Z,8.40
2023-04-15T09:12:09.552Z,6.60
2023-04-15T09:13:09.578Z,6.80
2023-04-15T09:14:09.532Z,6.40
2023-04-15T09:15:09.542Z,7.20
2023-04-15T09:16:09.541Z,5.90
2023-04-15T09:17:09.493Z,6.00
2023-04-15T09:18:09.475Z,5.90
2023-04-15T09:19:09.475Z,5.20
2023-04-15T09:20:09.470Z,5.80
2023-04-15T09:21:09.447Z,4.40
2023-04-15T09:22:09.427Z,3.80
2023-04-15T09:23:09.424Z,3.80
2023-04-15T09:24:09.406Z,3.60
2023-04-15T09:25:09.402Z,3.50
2023-04-15T09:26:09.371Z,3.90
2023-04-15T09:27:09.369Z,3.60
2023-04-15T09:28:09.346Z,21.40
2023-04-15T09:29:09.384Z,8.80
2023-04-15T09:30:09.347Z,24.50
2023-04-15T09:31:09.387Z,5.90
2023-04-15T09:32:09.277Z,3.60
2023-04-15T09:33:09.284Z,3.60
2023-04-15T09:34:09.272Z,3.40
2023-04-15T09:35:09.277Z,3.80
2023-04-15T09:36:09.232Z,4.20
2023-04-15T09:37:09.251Z,3.70
2023-04-15T09:38:09.202Z,6.00
2023-04-15T09:39:09.203Z,3.70
2023-04-15T09:40:09.237Z,3.80
2023-04-15T09:41:09.176Z,3.40
2023-04-15T09:42:09.163Z,5.00
2023-04-15T09:43:09.248Z,4.20
2023-04-15T09:44:09.128Z,3.70
2023-04-15T09:45:09.136Z,4.10
2023-04-15T09:46:09.151Z,4.20
2023-04-15T09:47:09.093Z,4.10
2023-04-15T09:48:09.107Z,34.50
2023-04-15T09:49:09.073Z,17.90
2023-04-15T09:50:09.081Z,30.80
2023-04-15T09:51:09.036Z,15.80
2023-04-15T09:52:09.023Z,12.80
2023-04-15T09:53:09.013Z,6.30
2023-04-15T09:54:08.993Z,5.80
2023-04-15T09:55:08.989Z,6.90
2023-04-15T09:56:09.004Z,6.50
2023-04-15T09:57:08.990Z,5.10
2023-04-15T09:58:08.950Z,4.90
2023-04-15T09:59:08.931Z,4.10
2023-04-15T10:00:08.938Z,7.50
2023-04-15T10:01:08.950Z,4.30
2023-04-15T10:02:09.040Z,5.80
2023-04-15T10:03:09.044Z,4.20
2023-04-15T10:04:08.973Z,7.10
2023-04-15T10:05:08.877Z,6.50
2023-04-15T10:06:08.990Z,4.80
2023-04-15T10:07:08.832Z,4.90
2023-04-15T10:08:08.812Z,4.80
2023-04-15T10:09:08.812Z,4.30
2023-04-15T10:10:08.824Z,4.10
2023-04-15T10:11:08.780Z,5.20
2023-04-15T10:12:08.759Z,4.60
2023-04-15T10:13:08.741Z,5.10
2023-04-15T10:14:08.722Z,7.10
2023-04-15T10:15:08.756Z,21.40
2023-04-15T10:16:08.751Z,4.50
2023-04-15T10:17:08.693Z,4.80
2023-04-15T10:18:08.718Z,4.90
2023-04-15T10:19:08.674Z,4.90
2023-04-15T10:20:08.660Z,5.30
2023-04-15T10:21:08.654Z,4.30
2023-04-15T10:22:08.626Z,4.70
2023-04-15T10:23:10.429Z,4.40
2023-04-15T10:24:08.605Z,4.10
2023-04-15T10:25:08.587Z,4.10
2023-04-15T10:26:08.594Z,5.00
2023-04-15T10:27:08.553Z,4.30
2023-04-15T10:28:08.543Z,4.80
2023-04-15T10:29:08.556Z,4.00
2023-04-15T10:30:08.525Z,4.90
2023-04-15T10:31:08.541Z,4.00
2023-04-15T10:32:08.497Z,5.00
2023-04-15T10:33:08.489Z,4.50
2023-04-15T10:34:08.478Z,4.10
2023-04-15T10:35:08.479Z,5.20
2023-04-15T10:36:08.513Z,4.60
2023-04-15T10:37:08.426Z,4.50
2023-04-15T10:38:08.406Z,4.20
2023-04-15T10:39:08.409Z,4.20
2023-04-15T10:40:08.440Z,4.40
2023-04-15T10:41:08.383Z,4.40
2023-04-15T10:42:08.409Z,4.50
2023-04-15T10:43:08.368Z,4.10
2023-04-15T10:44:08.338Z,3.90
2023-04-15T10:45:08.350Z,4.00
2023-04-15T10:46:08.353Z,4.30
2023-04-15T10:47:08.287Z,4.30
2023-04-15T10:48:08.326Z,4.70
2023-04-15T10:49:08.272Z,4.20
2023-04-15T10:50:08.274Z,4.60
2023-04-15T10:51:08.244Z,3.50
2023-04-15T10:52:08.221Z,5.20
2023-04-15T10:53:08.218Z,4.10
2023-04-15T10:54:08.232Z,4.20
2023-04-15T10:55:08.217Z,4.40
2023-04-15T10:56:08.179Z,4.80
2023-04-15T10:57:08.160Z,4.60
2023-04-15T10:58:08.143Z,4.00
2023-04-15T10:59:08.135Z,3.60
2023-04-15T11:00:08.115Z,3.80
2023-04-15T11:01:08.116Z,4.00
2023-04-15T11:02:08.197Z,3.40
2023-04-15T11:03:08.235Z,4.10
2023-04-15T11:04:08.215Z,3.90
2023-04-15T11:05:08.072Z,4.10
2023-04-15T11:06:08.029Z,4.00
2023-04-15T11:07:08.018Z,4.40
2023-04-15T11:08:08.008Z,4.40
2023-04-15T11:09:07.989Z,4.10
2023-04-15T11:10:08.005Z,4.10
2023-04-15T11:11:07.968Z,4.10
2023-04-15T11:12:07.952Z,15.40
2023-04-15T11:13:07.945Z,74.00
2023-04-15T11:14:07.922Z,17.60
2023-04-15T11:15:07.937Z,8.80
2023-04-15T11:16:07.963Z,6.50
2023-04-15T11:17:07.891Z,5.90
2023-04-15T11:18:07.971Z,5.10
2023-04-15T11:19:07.881Z,11.00
2023-04-15T11:20:07.896Z,6.30
2023-04-15T11:21:07.841Z,6.10
2023-04-15T11:22:07.823Z,4.90
2023-04-15T11:23:13.908Z,6.30
2023-04-15T11:24:09.056Z,5.60
2023-04-15T11:25:07.812Z,5.30
2023-04-15T11:26:07.762Z,6.80
2023-04-15T11:27:07.764Z,7.40
2023-04-15T11:28:07.770Z,7.70
2023-04-15T11:29:07.738Z,8.30
2023-04-15T11:30:07.750Z,7.40
2023-04-15T11:31:07.706Z,8.40
2023-04-15T11:32:07.734Z,7.30
2023-04-15T11:33:07.677Z,8.20
2023-04-15T11:34:07.711Z,7.00
2023-04-15T11:35:07.683Z,6.40
2023-04-15T11:36:07.652Z,5.50
2023-04-15T11:37:07.643Z,5.90
2023-04-15T11:38:07.606Z,5.90
2023-04-15T11:39:07.601Z,6.90
2023-04-15T11:40:07.616Z,7.00
2023-04-15T11:41:07.578Z,8.40
2023-04-15T11:42:07.559Z,7.20
2023-04-15T11:43:07.546Z,8.90
2023-04-15T11:44:07.529Z,9.30
2023-04-15T11:45:07.540Z,8.10
2023-04-15T11:46:07.524Z,7.00
2023-04-15T11:47:07.488Z,6.20
2023-04-15T11:48:07.478Z,6.00
2023-04-15T11:49:07.470Z,5.30
2023-04-15T11:50:07.478Z,5.00
2023-04-15T11:51:07.440Z,4.80
2023-04-15T11:52:07.418Z,5.20
2023-04-15T11:53:08.630Z,6.10
2023-04-15T11:54:07.569Z,6.30
2023-04-15T11:55:07.415Z,6.20
2023-04-15T11:56:07.364Z,6.60
2023-04-15T11:57:07.360Z,10.50
2023-04-15T11:58:07.349Z,10.40
2023-04-15T11:59:07.344Z,11.20
2023-04-15T12:00:07.342Z,24.00
2023-04-15T12:01:07.317Z,27.50
2023-04-15T12:02:07.340Z,11.60
2023-04-15T12:03:07.454Z,7.80
2023-04-15T12:04:07.516Z,9.50
2023-04-15T12:05:07.297Z,9.00
2023-04-15T12:06:07.235Z,8.00
2023-04-15T12:07:07.228Z,6.90
2023-04-15T12:08:07.209Z,7.10
2023-04-15T12:09:07.205Z,7.90
2023-04-15T12:10:07.178Z,6.80
2023-04-15T12:11:07.189Z,7.30
2023-04-15T12:12:07.162Z,6.40
2023-04-15T12:13:07.150Z,6.10
2023-04-15T12:14:07.135Z,7.00
2023-04-15T12:15:07.137Z,7.00
2023-04-15T12:16:07.157Z,6.50
2023-04-15T12:17:07.085Z,6.30
2023-04-15T12:18:07.111Z,6.80
2023-04-15T12:19:07.068Z,6.00
2023-04-15T12:20:07.056Z,5.70
2023-04-15T12:21:07.071Z,5.60
2023-04-15T12:22:07.019Z,5.00
2023-04-15T12:23:07.013Z,6.00
2023-04-15T12:24:07.056Z,5.40
2023-04-15T12:25:07.001Z,7.40
2023-04-15T12:26:06.974Z,5.90
2023-04-15T12:27:06.968Z,5.30
2023-04-15T12:28:06.945Z,5.40
2023-04-15T12:29:06.937Z,5.70
2023-04-15T12:30:06.938Z,5.50
2023-04-15T12:31:06.938Z,5.60
2023-04-15T12:32:06.923Z,5.30
2023-04-15T12:33:06.899Z,5.40
2023-04-15T12:34:07.008Z,4.70
2023-04-15T12:35:06.869Z,4.90
2023-04-15T12:36:06.842Z,5.10
2023-04-15T12:37:06.817Z,5.20
2023-04-15T12:38:06.807Z,5.20
2023-04-15T12:39:06.817Z,5.20
2023-04-15T12:40:06.816Z,5.40
2023-04-15T12:41:06.768Z,5.30
2023-04-15T12:42:06.768Z,4.90
2023-04-15T12:43:06.744Z,5.00
2023-04-15T12:44:06.881Z,4.70
2023-04-15T12:45:06.744Z,4.90
2023-04-15T12:46:06.721Z,5.20
2023-04-15T12:47:06.701Z,6.90
2023-04-15T12:48:06.681Z,4.60
2023-04-15T12:49:06.659Z,5.10
2023-04-15T12:50:06.652Z,4.80
2023-04-15T12:51:06.638Z,4.50
2023-04-15T12:52:06.653Z,4.90
2023-04-15T12:53:06.616Z,6.10
2023-04-15T12:54:06.905Z,4.50
2023-04-15T12:55:06.600Z,4.60
2023-04-15T12:56:06.574Z,4.70
2023-04-15T12:57:07.713Z,5.70
2023-04-15T12:58:06.556Z,4.70
2023-04-15T12:59:06.531Z,4.70
2023-04-15T13:00:06.557Z,4.60
2023-04-15T13:01:06.506Z,4.60